Time;durP1;ratioP1;P1;durP2;ratioP2;P2;SDS_P1;SDS_P2;PMS_P1;PMS_P2;Temp;Humidity;BMP_temperature;BMP_pressure;BME280_temperature;BME280_humidity;BME280_pressure;Samples;Min_cycle;Max_cycle;Signal;HPM_P1;HPM_P2
2023/03/20 00:04:47;;;;;;;12.10;6.28;;;;;;;;;;10323528;28;20030;-69
2023/03/20 00:09:48;;;;;;;12.73;6.53;;;;;;;;;;10340485;28;20104;-68
2023/03/20 00:14:48;;;;;;;16.63;8.07;;;;;;;;;;10339585;28;20504;-68
2023/03/20 00:19:49;;;;;;;21.27;7.30;;;;;;;;;;10340244;28;20032;-68
2023/03/20 00:24:49;;;;;;;12.73;6.50;;;;;;;;;;10340041;28;21119;-68
2023/03/20 00:29:49;;;;;;;14.83;7.80;;;;;;;;;;10339417;28;20116;-68
2023/03/20 00:34:50;;;;;;;14.50;7.23;;;;;;;;;;10352883;28;20038;-69
2023/03/20 00:39:50;;;;;;;22.63;7.03;;;;;;;;;;10337311;28;20335;-69
2023/03/20 00:44:53;;;;;;;12.90;6.43;;;;;;;;;;10338914;28;20671;-70
2023/03/20 00:49:54;;;;;;;8.77;4.95;;;;;;;;;;10335199;28;20405;-69
2023/03/20 00:54:54;;;;;;;9.52;5.28;;;;;;;;;;10328349;28;20064;-69
2023/03/20 01:00:00;;;;;;;12.00;5.37;;;;;;;;;;10336414;28;20032;-69
2023/03/20 01:05:01;;;;;;;9.90;4.68;;;;;;;;;;10337530;28;20265;-69
2023/03/20 01:10:01;;;;;;;11.63;5.85;;;;;;;;;;10338682;28;20030;-69
2023/03/20 01:15:01;;;;;;;14.30;5.40;;;;;;;;;;10322201;28;20097;-68
2023/03/20 01:20:05;;;;;;;16.95;5.15;;;;;;;;;;10321014;28;20066;-69
2023/03/20 01:25:06;;;;;;;13.60;6.30;;;;;;;;;;10297389;28;20034;-69
2023/03/20 01:30:20;;;;;;;12.80;5.55;;;;;;;;;;10333407;28;20034;-69
2023/03/20 01:35:21;;;;;;;10.63;6.60;;;;;;;;;;10334254;28;20033;-69
2023/03/20 01:40:27;;;;;;;12.68;6.25;;;;;;;;;;10354517;28;20037;-69
2023/03/20 01:45:32;;;;;;;10.90;5.70;;;;;;;;;;10342570;28;20042;-69
2023/03/20 01:50:33;;;;;;;13.93;5.90;;;;;;;;;;10361781;28;20044;-69
2023/03/20 01:55:34;;;;;;;15.45;5.75;;;;;;;;;;10345251;28;20474;-69
2023/03/20 02:00:35;;;;;;;11.32;6.25;;;;;;;;;;10345670;28;20091;-70
2023/03/20 02:05:36;;;;;;;16.10;8.13;;;;;;;;;;10360311;28;20140;-69
2023/03/20 02:10:36;;;;;;;11.50;6.30;;;;;;;;;;10345165;28;20042;-69
2023/03/20 02:15:53;;;;;;;13.60;5.90;;;;;;;;;;10328766;28;20441;-69
2023/03/20 02:21:14;;;;;;;14.52;6.25;;;;;;;;;;10326638;28;20096;-69
2023/03/20 02:26:15;;;;;;;11.68;5.07;;;;;;;;;;10330239;28;20198;-69
2023/03/20 02:31:27;;;;;;;12.77;5.15;;;;;;;;;;10303312;28;20026;-69
2023/03/20 02:36:30;;;;;;;11.60;5.25;;;;;;;;;;10303385;28;20413;-69
2023/03/20 02:41:30;;;;;;;10.38;5.80;;;;;;;;;;10304143;28;20472;-69
2023/03/20 02:46:35;;;;;;;17.17;5.38;;;;;;;;;;10318405;28;20163;-69
2023/03/20 02:51:39;;;;;;;13.30;5.50;;;;;;;;;;10343375;28;20141;-69
2023/03/20 02:56:48;;;;;;;13.55;5.03;;;;;;;;;;10358431;28;20034;-69
2023/03/20 03:01:54;;;;;;;11.20;6.60;;;;;;;;;;10343037;28;20377;-69
2023/03/20 03:06:57;;;;;;;15.15;6.57;;;;;;;;;;10358325;28;20040;-70
2023/03/20 03:12:08;;;;;;;12.00;7.18;;;;;;;;;;10357019;28;20036;-69
2023/03/20 03:17:09;;;;;;;12.30;6.53;;;;;;;;;;10342213;28;20044;-69
2023/03/20 03:22:11;;;;;;;12.52;5.93;;;;;;;;;;10342473;28;20495;-69
2023/03/20 03:27:14;;;;;;;13.32;6.63;;;;;;;;;;10341996;28;20141;-69
2023/03/20 03:32:19;;;;;;;12.35;7.40;;;;;;;;;;10355600;28;20033;-69
2023/03/20 03:37:25;;;;;;;10.38;6.72;;;;;;;;;;10324388;28;20437;-69
2023/03/20 03:42:34;;;;;;;17.48;8.15;;;;;;;;;;10341383;28;20034;-69
2023/03/20 03:47:37;;;;;;;17.70;6.82;;;;;;;;;;10340581;28;20045;-69
2023/03/20 03:52:38;;;;;;;17.02;7.63;;;;;;;;;;10340861;28;20144;-69
2023/03/20 03:57:45;;;;;;;16.90;7.70;;;;;;;;;;10341343;28;20053;-69
2023/03/20 04:02:46;;;;;;;22.63;7.90;;;;;;;;;;10340120;28;20030;-69
2023/03/20 04:07:51;;;;;;;19.95;7.05;;;;;;;;;;10340213;28;20030;-69
2023/03/20 04:12:52;;;;;;;19.73;8.35;;;;;;;;;;10340212;28;20029;-69
2023/03/20 04:17:52;;;;;;;19.30;7.72;;;;;;;;;;10340871;28;20481;-69
2023/03/20 04:22:52;;;;;;;12.40;6.68;;;;;;;;;;10316443;28;20413;-69
2023/03/20 04:27:53;;;;;;;10.48;5.93;;;;;;;;;;10327668;28;20041;-70
2023/03/20 04:32:53;;;;;;;16.93;6.50;;;;;;;;;;10313039;28;20345;-69
2023/03/20 04:37:53;;;;;;;13.50;6.90;;;;;;;;;;10326119;28;20269;-70
2023/03/20 04:42:54;;;;;;;17.80;5.77;;;;;;;;;;10338933;28;20084;-69
2023/03/20 04:47:54;;;;;;;12.97;7.67;;;;;;;;;;10338604;28;20460;-69
2023/03/20 04:52:54;;;;;;;17.58;8.10;;;;;;;;;;10353521;28;20746;-71
2023/03/20 04:57:55;;;;;;;14.38;7.78;;;;;;;;;;10335081;28;20604;-69
2023/03/20 05:02:55;;;;;;;20.65;7.75;;;;;;;;;;10337129;28;20030;-69
2023/03/20 05:07:55;;;;;;;16.47;6.97;;;;;;;;;;10318265;28;20041;-70
2023/03/20 05:12:56;;;;;;;21.27;7.90;;;;;;;;;;10340970;28;20465;-69
2023/03/20 05:17:56;;;;;;;21.50;8.07;;;;;;;;;;10335639;28;20120;-70
2023/03/20 05:22:56;;;;;;;28.45;9.65;;;;;;;;;;10325727;28;20049;-69
2023/03/20 05:27:56;;;;;;;31.80;9.68;;;;;;;;;;10342419;28;20033;-69
2023/03/20 05:32:57;;;;;;;19.02;7.93;;;;;;;;;;10336007;28;20034;-69
2023/03/20 05:37:57;;;;;;;21.58;7.10;;;;;;;;;;10345878;28;20084;-69
2023/03/20 05:42:58;;;;;;;16.75;6.70;;;;;;;;;;10310767;28;20117;-69
2023/03/20 05:47:58;;;;;;;14.35;5.72;;;;;;;;;;10316165;28;20045;-71
2023/03/20 05:52:59;;;;;;;16.88;7.05;;;;;;;;;;10343860;28;20070;-71
2023/03/20 05:57:59;;;;;;;20.85;7.90;;;;;;;;;;10336267;28;20460;-71
2023/03/20 06:03:00;;;;;;;21.43;7.80;;;;;;;;;;10333305;28;20033;-71
2023/03/20 06:08:01;;;;;;;13.02;6.93;;;;;;;;;;10315467;28;20284;-70
2023/03/20 06:13:01;;;;;;;21.50;8.40;;;;;;;;;;10312712;28;20112;-70
2023/03/20 06:18:02;;;;;;;32.87;10.27;;;;;;;;;;10316900;28;20026;-71
2023/03/20 06:23:02;;;;;;;34.63;9.65;;;;;;;;;;10312345;28;20428;-73
2023/03/20 06:28:02;;;;;;;23.05;9.50;;;;;;;;;;10306843;28;20104;-70
2023/03/20 06:33:04;;;;;;;32.43;11.33;;;;;;;;;;10317460;28;20034;-72
2023/03/20 06:38:05;;;;;;;31.10;11.85;;;;;;;;;;10315061;28;20038;-71
2023/03/20 06:43:05;;;;;;;29.15;11.65;;;;;;;;;;10332095;28;20033;-71
2023/03/20 06:48:10;;;;;;;31.88;11.63;;;;;;;;;;10323833;28;20505;-70
2023/03/20 06:53:10;;;;;;;33.53;11.63;;;;;;;;;;10330764;28;20142;-70
2023/03/20 06:58:10;;;;;;;27.70;11.00;;;;;;;;;;10315806;28;20035;-75
2023/03/20 07:03:10;;;;;;;29.67;11.43;;;;;;;;;;10312648;28;20034;-71
2023/03/20 07:08:11;;;;;;;26.10;12.47;;;;;;;;;;10316252;28;20450;-70
2023/03/20 07:13:13;;;;;;;37.17;11.77;;;;;;;;;;10308283;28;20026;-72
2023/03/20 07:18:13;;;;;;;31.23;12.52;;;;;;;;;;10321596;28;20033;-70
2023/03/20 07:23:13;;;;;;;27.50;12.15;;;;;;;;;;10313072;28;20034;-71
2023/03/20 07:28:14;;;;;;;32.08;13.20;;;;;;;;;;10323669;28;20038;-72
2023/03/20 07:33:14;;;;;;;19.00;10.32;;;;;;;;;;10311254;28;20030;-69
2023/03/20 07:38:14;;;;;;;22.67;10.53;;;;;;;;;;10317234;28;20052;-69
2023/03/20 07:43:15;;;;;;;20.10;9.67;;;;;;;;;;10328363;28;20034;-78
2023/03/20 07:48:16;;;;;;;25.05;10.23;;;;;;;;;;10316030;28;20053;-73
2023/03/20 07:53:16;;;;;;;29.52;11.15;;;;;;;;;;10313251;28;20046;-73
2023/03/20 07:58:16;;;;;;;21.92;10.18;;;;;;;;;;10308104;28;20410;-72
2023/03/20 08:03:17;;;;;;;24.10;10.57;;;;;;;;;;10319054;28;20511;-72
2023/03/20 08:08:17;;;;;;;36.17;11.00;;;;;;;;;;10317177;28;20097;-73
2023/03/20 08:13:17;;;;;;;22.45;11.82;;;;;;;;;;10320293;28;20042;-73
2023/03/20 08:18:19;;;;;;;27.13;12.52;;;;;;;;;;10312240;28;20188;-68
2023/03/20 08:23:19;;;;;;;26.75;12.30;;;;;;;;;;10314840;28;20034;-75
2023/03/20 08:28:19;;;;;;;29.35;12.88;;;;;;;;;;10324701;28;20038;-78
2023/03/20 08:33:20;;;;;;;23.88;11.73;;;;;;;;;;10361723;28;20036;-71
2023/03/20 08:38:20;;;;;;;26.80;12.82;;;;;;;;;;10340028;28;20513;-71
2023/03/20 08:43:21;;;;;;;20.40;11.43;;;;;;;;;;10339028;28;20034;-72
2023/03/20 08:48:21;;;;;;;38.38;14.40;;;;;;;;;;10338934;28;20099;-73
2023/03/20 08:53:21;;;;;;;21.43;11.93;;;;;;;;;;10339483;28;20457;-71
2023/03/20 08:58:21;;;;;;;25.57;12.40;;;;;;;;;;10353294;28;20030;-71
2023/03/20 09:03:22;;;;;;;29.58;12.25;;;;;;;;;;10337717;28;20038;-72
2023/03/20 09:08:23;;;;;;;26.57;13.77;;;;;;;;;;10336955;28;20026;-72
2023/03/20 09:13:24;;;;;;;23.92;10.77;;;;;;;;;;10335957;28;20704;-72
2023/03/20 09:18:24;;;;;;;25.27;10.32;;;;;;;;;;10338852;28;20034;-72
2023/03/20 09:23:25;;;;;;;24.80;10.37;;;;;;;;;;10339278;28;20367;-72
2023/03/20 09:28:26;;;;;;;22.93;11.93;;;;;;;;;;10339125;28;20045;-72
2023/03/20 09:33:26;;;;;;;23.20;10.88;;;;;;;;;;10339171;28;20268;-72
2023/03/20 09:38:26;;;;;;;26.27;10.35;;;;;;;;;;10338962;28;20040;-72
2023/03/20 09:43:50;;;;;;;31.60;11.73;;;;;;;;;;10339102;28;20576;-70
2023/03/20 09:49:14;;;;;;;27.83;10.50;;;;;;;;;;10338731;28;20160;-72
2023/03/20 09:54:24;;;;;;;25.15;11.63;;;;;;;;;;10338476;28;20049;-71
2023/03/20 09:59:25;;;;;;;23.20;10.93;;;;;;;;;;10342480;28;20030;-74
2023/03/20 10:04:27;;;;;;;25.15;11.00;;;;;;;;;;10345998;28;20511;-73
2023/03/20 10:09:30;;;;;;;25.83;11.88;;;;;;;;;;10345998;28;20582;-72
2023/03/20 10:14:36;;;;;;;23.27;11.63;;;;;;;;;;10345575;28;20034;-72
2023/03/20 10:19:39;;;;;;;35.33;13.13;;;;;;;;;;10345027;28;20034;-72
2023/03/20 10:24:43;;;;;;;28.73;12.77;;;;;;;;;;10345199;28;20447;-72
2023/03/20 10:29:43;;;;;;;19.90;8.27;;;;;;;;;;10343498;28;20042;-73
2023/03/20 10:34:54;;;;;;;20.98;8.85;;;;;;;;;;10359860;28;20153;-72
2023/03/20 10:40:02;;;;;;;17.27;8.73;;;;;;;;;;10344048;28;21303;-70
2023/03/20 10:45:23;;;;;;;32.67;8.90;;;;;;;;;;10344146;28;20037;-71
2023/03/20 10:50:43;;;;;;;16.38;7.95;;;;;;;;;;10336327;28;20140;-73
2023/03/20 10:55:45;;;;;;;20.58;9.48;;;;;;;;;;10358390;28;20489;-73
2023/03/20 11:00:45;;;;;;;24.88;8.75;;;;;;;;;;10343648;28;20574;-72
2023/03/20 11:05:47;;;;;;;20.42;8.02;;;;;;;;;;10343293;28;20095;-73
2023/03/20 11:10:56;;;;;;;19.60;8.35;;;;;;;;;;10342995;28;20042;-73
2023/03/20 11:16:06;;;;;;;14.80;7.05;;;;;;;;;;10343209;28;20690;-73
2023/03/20 11:21:07;;;;;;;19.58;8.13;;;;;;;;;;10342724;28;20099;-73
2023/03/20 11:26:13;;;;;;;16.45;7.43;;;;;;;;;;10342348;28;20101;-70
2023/03/20 11:31:14;;;;;;;;;;;;;;;;;;10342063;28;20022;-69
2023/03/20 11:36:32;;;;;;;21.23;8.10;;;;;;;;;;10335600;28;19909;-71
2023/03/20 11:41:32;;;;;;;21.40;8.88;;;;;;;;;;10334464;28;20030;-71
2023/03/20 11:46:32;;;;;;;17.50;9.32;;;;;;;;;;10333150;28;20358;-74
2023/03/20 11:51:34;;;;;;;24.50;8.85;;;;;;;;;;10341491;28;20089;-72
2023/03/20 11:56:35;;;;;;;17.63;8.35;;;;;;;;;;10378187;28;20121;-72
2023/03/20 12:01:39;;;;;;;17.45;7.40;;;;;;;;;;10384524;28;20507;-72
2023/03/20 12:06:39;;;;;;;16.55;7.75;;;;;;;;;;10340864;28;20632;-73
2023/03/20 12:11:42;;;;;;;17.80;8.00;;;;;;;;;;10340481;28;20095;-72
2023/03/20 12:16:43;;;;;;;15.00;7.55;;;;;;;;;;10340596;28;20034;-72
2023/03/20 12:21:47;;;;;;;15.52;7.43;;;;;;;;;;10335023;28;20437;-71
2023/03/20 12:26:51;;;;;;;16.60;7.50;;;;;;;;;;10365479;28;20026;-70
2023/03/20 12:31:58;;;;;;;19.98;9.48;;;;;;;;;;10335791;28;20026;-72
2023/03/20 12:36:59;;;;;;;15.10;6.25;;;;;;;;;;10318744;28;20546;-72
2023/03/20 12:42:18;;;;;;;16.20;6.85;;;;;;;;;;10326163;28;20027;-71
2023/03/20 12:47:27;;;;;;;16.70;6.53;;;;;;;;;;10312267;28;20536;-72
2023/03/20 12:52:33;;;;;;;12.45;5.35;;;;;;;;;;10335705;28;20550;-72
2023/03/20 12:57:37;;;;;;;14.43;5.38;;;;;;;;;;10341773;28;20548;-72
2023/03/20 13:02:42;;;;;;;11.90;4.95;;;;;;;;;;10380064;28;20545;-71
2023/03/20 13:08:02;;;;;;;12.00;4.53;;;;;;;;;;10365132;28;20034;-72
2023/03/20 13:13:07;;;;;;;12.05;4.43;;;;;;;;;;10339776;28;20034;-70
2023/03/20 13:18:13;;;;;;;16.27;6.05;;;;;;;;;;10339441;28;20034;-70
2023/03/20 13:23:22;;;;;;;12.93;4.38;;;;;;;;;;10339359;28;20682;-70
2023/03/20 13:28:23;;;;;;;16.35;6.55;;;;;;;;;;10338604;28;20042;-71
2023/03/20 13:33:26;;;;;;;13.77;4.00;;;;;;;;;;10340429;28;20824;-72
2023/03/20 13:38:29;;;;;;;7.28;3.35;;;;;;;;;;10346277;28;20034;-71
2023/03/20 13:43:32;;;;;;;10.45;3.00;;;;;;;;;;10359919;28;20034;-72
2023/03/20 13:48:39;;;;;;;7.47;3.15;;;;;;;;;;10348132;28;20433;-71
2023/03/20 13:53:47;;;;;;;8.55;3.75;;;;;;;;;;10345628;28;20042;-70
2023/03/20 13:59:02;;;;;;;10.75;3.10;;;;;;;;;;10344227;28;20030;-72
2023/03/20 14:04:03;;;;;;;4.72;3.15;;;;;;;;;;10333379;28;20096;-70
2023/03/20 14:09:22;;;;;;;5.60;2.80;;;;;;;;;;10342816;28;20763;-72
2023/03/20 14:14:30;;;;;;;9.55;3.30;;;;;;;;;;10359770;28;20388;-72
2023/03/20 14:19:31;;;;;;;10.15;3.78;;;;;;;;;;10344526;28;20413;-72
2023/03/20 14:24:34;;;;;;;6.22;2.58;;;;;;;;;;10344554;28;20040;-72
2023/03/20 14:29:35;;;;;;;11.20;3.58;;;;;;;;;;10344469;28;20033;-70
2023/03/20 14:34:43;;;;;;;7.10;2.80;;;;;;;;;;10346117;28;20040;-71
2023/03/20 14:39:44;;;;;;;7.35;2.92;;;;;;;;;;10345464;28;20041;-71
2023/03/20 14:44:50;;;;;;;10.98;3.15;;;;;;;;;;10343775;28;20046;-71
2023/03/20 14:49:56;;;;;;;9.23;2.85;;;;;;;;;;10342634;28;20413;-70
2023/03/20 14:55:12;;;;;;;13.85;2.92;;;;;;;;;;10340779;28;20034;-70
2023/03/20 15:00:23;;;;;;;9.77;4.68;;;;;;;;;;10341662;28;20049;-70
2023/03/20 15:05:24;;;;;;;10.25;3.45;;;;;;;;;;10301004;28;20042;-70
2023/03/20 15:10:25;;;;;;;9.77;3.80;;;;;;;;;;10314734;28;20042;-70
2023/03/20 15:15:32;;;;;;;8.07;3.00;;;;;;;;;;10342144;28;20029;-70
2023/03/20 15:20:34;;;;;;;7.38;2.92;;;;;;;;;;10357908;28;20065;-69
2023/03/20 15:25:39;;;;;;;17.02;3.95;;;;;;;;;;10338342;28;20037;-70
2023/03/20 15:30:39;;;;;;;12.88;4.60;;;;;;;;;;10328291;28;20042;-70
2023/03/20 15:35:40;;;;;;;10.40;3.65;;;;;;;;;;10330065;28;20408;-70
2023/03/20 15:40:40;;;;;;;12.13;4.35;;;;;;;;;;10341808;28;20050;-72
2023/03/20 15:45:41;;;;;;;14.77;4.87;;;;;;;;;;10340511;28;20066;-71
2023/03/20 15:50:44;;;;;;;22.08;4.30;;;;;;;;;;10340862;28;20461;-70
2023/03/20 15:56:03;;;;;;;10.80;4.75;;;;;;;;;;10324944;28;20035;-71
2023/03/20 16:01:04;;;;;;;9.63;4.57;;;;;;;;;;10300838;28;20038;-71
2023/03/20 16:06:07;;;;;;;28.00;5.38;;;;;;;;;;10303909;28;20405;-70
2023/03/20 16:11:12;;;;;;;18.33;7.28;;;;;;;;;;10298599;28;20540;-72
2023/03/20 16:16:20;;;;;;;21.27;6.60;;;;;;;;;;10322469;28;20041;-70
2023/03/20 16:21:23;;;;;;;22.20;7.25;;;;;;;;;;10340628;28;20532;-73
2023/03/20 16:26:24;;;;;;;21.75;6.60;;;;;;;;;;10311479;28;20149;-72
2023/03/20 16:31:26;;;;;;;28.73;6.13;;;;;;;;;;10495145;22;20074;-72
2023/03/20 16:36:28;;;;;;;19.05;8.60;;;;;;;;;;10369520;28;20384;-72
2023/03/20 16:41:35;;;;;;;12.65;6.68;;;;;;;;;;10365852;28;20045;-73
2023/03/20 16:46:36;;;;;;;15.73;6.93;;;;;;;;;;10350813;28;20638;-73
2023/03/20 16:51:36;;;;;;;33.58;7.47;;;;;;;;;;10364523;28;20064;-70
2023/03/20 16:56:39;;;;;;;19.47;7.17;;;;;;;;;;10368652;28;20395;-72
2023/03/20 17:01:40;;;;;;;28.00;6.90;;;;;;;;;;10360522;28;20025;-72
2023/03/20 17:06:45;;;;;;;16.05;6.40;;;;;;;;;;10367442;28;20045;-71
2023/03/20 17:11:57;;;;;;;22.77;6.60;;;;;;;;;;10372120;28;20034;-72
2023/03/20 17:16:59;;;;;;;22.88;7.40;;;;;;;;;;10371358;28;20060;-71
2023/03/20 17:22:02;;;;;;;21.75;7.47;;;;;;;;;;10374320;28;20404;-72
2023/03/20 17:27:02;;;;;;;32.53;8.02;;;;;;;;;;10374264;28;20030;-70
2023/03/20 17:32:08;;;;;;;27.10;8.27;;;;;;;;;;10365686;28;20371;-71
2023/03/20 17:37:12;;;;;;;48.22;10.40;;;;;;;;;;10369357;28;20026;-71
2023/03/20 17:42:17;;;;;;;26.38;9.57;;;;;;;;;;10377081;28;21397;-74
2023/03/20 17:47:19;;;;;;;23.75;9.70;;;;;;;;;;10376231;28;20130;-72
2023/03/20 17:52:24;;;;;;;27.60;9.38;;;;;;;;;;10388540;28;20411;-72
2023/03/20 17:57:32;;;;;;;29.02;10.20;;;;;;;;;;10376983;28;20456;-73
2023/03/20 18:02:32;;;;;;;21.33;7.57;;;;;;;;;;10370902;28;20042;-73
2023/03/20 18:07:33;;;;;;;16.17;8.15;;;;;;;;;;10347464;28;20447;-72
2023/03/20 18:12:33;;;;;;;22.45;9.05;;;;;;;;;;10371714;28;20033;-71
2023/03/20 18:17:34;;;;;;;18.90;7.73;;;;;;;;;;10379446;28;20047;-71
2023/03/20 18:22:34;;;;;;;23.93;8.80;;;;;;;;;;10368782;28;20293;-74
2023/03/20 18:27:34;;;;;;;26.85;8.73;;;;;;;;;;10372387;28;20095;-79
2023/03/20 18:32:35;;;;;;;18.33;6.77;;;;;;;;;;10371738;28;20037;-77
2023/03/20 18:37:35;;;;;;;14.30;5.83;;;;;;;;;;10370293;28;20670;-77
2023/03/20 18:42:36;;;;;;;23.75;5.40;;;;;;;;;;10372830;28;20025;-77
2023/03/20 18:47:36;;;;;;;9.93;5.40;;;;;;;;;;10377303;28;20034;-77
2023/03/20 18:52:36;;;;;;;11.32;5.07;;;;;;;;;;10369039;28;20033;-77
2023/03/20 18:57:40;;;;;;;11.45;4.78;;;;;;;;;;10352567;28;20033;-76
2023/03/20 19:02:40;;;;;;;10.85;5.43;;;;;;;;;;10369428;28;20060;-77
2023/03/20 19:07:41;;;;;;;8.95;4.78;;;;;;;;;;10367719;28;20076;-75
2023/03/20 19:12:41;;;;;;;10.20;4.88;;;;;;;;;;10368402;28;20088;-73
2023/03/20 19:17:41;;;;;;;12.93;5.53;;;;;;;;;;10354832;28;20034;-76
2023/03/20 19:22:41;;;;;;;11.88;4.85;;;;;;;;;;10371677;28;20041;-76
2023/03/20 19:27:42;;;;;;;13.80;5.78;;;;;;;;;;10358527;28;20107;-73
2023/03/20 19:32:42;;;;;;;12.37;5.03;;;;;;;;;;10365364;28;20041;-74
2023/03/20 19:37:42;;;;;;;13.30;6.70;;;;;;;;;;10374959;28;20465;-79
2023/03/20 19:42:43;;;;;;;13.33;6.50;;;;;;;;;;10374890;28;20033;-85
2023/03/20 19:47:43;;;;;;;19.63;7.40;;;;;;;;;;10375375;28;20029;-74
2023/03/20 19:52:43;;;;;;;14.10;6.77;;;;;;;;;;10368399;28;20346;-72
2023/03/20 19:57:44;;;;;;;17.23;7.63;;;;;;;;;;10367339;28;20036;-78
2023/03/20 20:02:45;;;;;;;19.37;9.07;;;;;;;;;;10371196;28;20029;-75
2023/03/20 20:07:45;;;;;;;13.43;6.53;;;;;;;;;;10370946;28;20491;-82
2023/03/20 20:12:47;;;;;;;20.80;6.55;;;;;;;;;;10373414;28;20080;-76
2023/03/20 20:17:48;;;;;;;22.63;8.32;;;;;;;;;;10376573;28;20142;-82
2023/03/20 20:22:48;;;;;;;21.17;7.78;;;;;;;;;;10369115;28;20061;-72
2023/03/20 20:27:49;;;;;;;18.00;7.25;;;;;;;;;;10367674;28;20463;-73
2023/03/20 20:32:49;;;;;;;28.13;9.02;;;;;;;;;;10365537;28;20420;-72
2023/03/20 20:37:49;;;;;;;23.48;9.18;;;;;;;;;;10364474;28;20084;-74
2023/03/20 20:42:50;;;;;;;21.03;10.73;;;;;;;;;;10366585;28;20033;-78
2023/03/20 20:47:51;;;;;;;23.75;9.23;;;;;;;;;;10361154;28;20126;-72
2023/03/20 20:52:52;;;;;;;24.77;8.93;;;;;;;;;;10347283;28;20075;-73
2023/03/20 20:57:54;;;;;;;20.15;9.38;;;;;;;;;;10366472;28;20040;-74
2023/03/20 21:02:54;;;;;;;13.02;7.78;;;;;;;;;;10365593;28;20037;-73
2023/03/20 21:07:56;;;;;;;17.20;7.95;;;;;;;;;;10365543;28;20531;-73
2023/03/20 21:12:56;;;;;;;26.05;8.55;;;;;;;;;;10370706;28;20519;-71
2023/03/20 21:17:57;;;;;;;13.32;6.03;;;;;;;;;;10374866;28;20085;-71
2023/03/20 21:22:57;;;;;;;14.30;7.57;;;;;;;;;;10377775;28;20688;-72
2023/03/20 21:27:58;;;;;;;12.65;7.45;;;;;;;;;;10378004;28;20061;-72
2023/03/20 21:32:58;;;;;;;12.07;5.80;;;;;;;;;;10377895;28;20037;-72
2023/03/20 21:37:58;;;;;;;12.40;6.22;;;;;;;;;;10378862;28;20065;-72
2023/03/20 21:42:59;;;;;;;13.35;6.05;;;;;;;;;;10379728;28;20022;-71
2023/03/20 21:48:00;;;;;;;11.50;6.22;;;;;;;;;;10379122;28;20029;-71
2023/03/20 21:53:00;;;;;;;12.88;6.47;;;;;;;;;;10358477;28;20030;-72
2023/03/20 21:58:01;;;;;;;12.60;6.17;;;;;;;;;;10378920;28;20025;-72
2023/03/20 22:03:01;;;;;;;10.47;6.10;;;;;;;;;;10386253;28;20268;-71
2023/03/20 22:08:01;;;;;;;9.70;5.47;;;;;;;;;;10384708;28;20311;-71
2023/03/20 22:13:02;;;;;;;12.27;6.43;;;;;;;;;;10383257;28;20441;-71
2023/03/20 22:18:02;;;;;;;10.45;6.38;;;;;;;;;;10384096;28;20392;-71
2023/03/20 22:23:02;;;;;;;10.97;6.27;;;;;;;;;;10385393;28;20534;-70
2023/03/20 22:28:03;;;;;;;10.90;6.00;;;;;;;;;;10382449;28;20030;-70
2023/03/20 22:33:03;;;;;;;12.30;6.33;;;;;;;;;;10383321;28;20053;-70
2023/03/20 22:38:04;;;;;;;16.03;7.30;;;;;;;;;;10383178;28;20777;-71
2023/03/20 22:43:04;;;;;;;15.82;5.60;;;;;;;;;;10381563;28;20268;-69
2023/03/20 22:48:05;;;;;;;10.40;5.75;;;;;;;;;;10363413;28;20029;-70
2023/03/20 22:53:05;;;;;;;12.13;6.40;;;;;;;;;;10381375;28;20032;-70
2023/03/20 22:58:05;;;;;;;13.73;5.50;;;;;;;;;;10363583;28;20077;-70
2023/03/20 23:03:06;;;;;;;12.93;6.30;;;;;;;;;;10364266;28;20418;-69
2023/03/20 23:08:07;;;;;;;13.15;5.30;;;;;;;;;;10383886;28;20495;-70
2023/03/20 23:13:07;;;;;;;11.50;5.55;;;;;;;;;;10383525;28;20033;-71
2023/03/20 23:18:08;;;;;;;9.60;5.53;;;;;;;;;;10383081;28;20088;-70
2023/03/20 23:23:09;;;;;;;12.35;5.35;;;;;;;;;;10351959;28;20033;-70
2023/03/20 23:28:09;;;;;;;9.82;5.63;;;;;;;;;;10382938;28;20033;-70
2023/03/20 23:33:09;;;;;;;10.02;5.65;;;;;;;;;;10370979;28;20053;-70
2023/03/20 23:38:10;;;;;;;11.85;5.55;;;;;;;;;;10382834;28;20035;-70
2023/03/20 23:43:10;;;;;;;10.40;5.82;;;;;;;;;;10382733;28;20646;-71
2023/03/20 23:48:11;;;;;;;13.47;5.40;;;;;;;;;;10381839;28;20065;-70
2023/03/20 23:53:12;;;;;;;8.25;5.78;;;;;;;;;;10364221;28;20264;-71
2023/03/20 23:58:12;;;;;;;11.80;6.17;;;;;;;;;;10381623;28;20095;-72
